Terminal Aerodrome Forecast
Issued by NWS South Bend, IN

Home | Current Version | Previous Version | Text Only | Print | Product List | Glossary Off
Versions: 1 2 3 4 5 6 7 8 9 10 11 12 13 14

000
FTUS43 KIWX 242300
TAFSBN
TAF
KSBN 242329Z 2500/2524 05008KT P6SM SCT070 OVC100
     FM250800 08012G17KT P6SM OVC050
     FM251600 09013G21KT 5SM -RA BR OVC025=

USA.gov is the U.S. government's official web portal to all federal, state and local government web resources and services.